Time;durP1;ratioP1;P1;durP2;ratioP2;P2;SDS_P1;SDS_P2;PMS_P1;PMS_P2;Temp;Humidity;BMP_temperature;BMP_pressure;BME280_temperature;BME280_humidity;BME280_pressure;Samples;Min_cycle;Max_cycle;Signal;HPM_P1;HPM_P2
2022/07/10 00:00:31;;;;;;;5.75;4.07;;;26.90;1.00;;;;;;5112813;28;20488;-50
2022/07/10 00:02:58;;;;;;;8.45;6.18;;;27.00;1.00;;;;;;5113219;28;20096;-50
2022/07/10 00:05:24;;;;;;;6.22;5.63;;;27.00;1.00;;;;;;5112985;27;20077;-52
2022/07/10 00:07:50;;;;;;;13.00;11.70;;;27.10;1.00;;;;;;5114628;28;20032;-47
2022/07/10 00:10:18;;;;;;;7.47;4.13;;;27.10;1.00;;;;;;5113098;27;20030;-52
2022/07/10 00:12:45;;;;;;;6.30;5.35;;;27.10;1.00;;;;;;5107656;28;20023;-47
2022/07/10 00:15:11;;;;;;;11.15;8.07;;;27.00;1.00;;;;;;5095687;28;20039;-49
2022/07/10 00:17:39;;;;;;;15.00;11.77;;;26.90;1.00;;;;;;5115093;27;20081;-47
2022/07/10 00:20:06;;;;;;;15.63;12.02;;;26.90;1.00;;;;;;5113937;28;20026;-49
2022/07/10 00:22:37;;;;;;;10.23;6.07;;;26.90;1.00;;;;;;5111989;28;20118;-47
2022/07/10 00:25:05;;;;;;;7.95;5.32;;;26.90;1.00;;;;;;5109040;27;22390;-47
2022/07/10 00:27:30;;;;;;;21.67;14.20;;;26.80;1.00;;;;;;5112983;27;20028;-49
2022/07/10 00:29:56;;;;;;;17.95;13.13;;;26.80;1.00;;;;;;5110223;27;20487;-46
2022/07/10 00:32:22;;;;;;;11.18;7.80;;;26.80;1.00;;;;;;5112390;27;20043;-48
2022/07/10 00:34:48;;;;;;;10.25;8.93;;;26.80;1.00;;;;;;5114292;28;20522;-48
2022/07/10 00:37:13;;;;;;;12.10;5.00;;;26.80;1.00;;;;;;5113414;28;20489;-49
2022/07/10 00:39:39;;;;;;;10.68;8.77;;;26.80;1.00;;;;;;5113062;28;20039;-46
2022/07/10 00:42:13;;;;;;;6.45;5.82;;;26.70;1.00;;;;;;5113346;28;20179;-48
2022/07/10 00:44:40;;;;;;;4.53;4.07;;;26.70;1.00;;;;;;5113898;28;20035;-46
2022/07/10 00:47:07;;;;;;;5.07;2.30;;;26.60;1.00;;;;;;5112562;27;20020;-46
2022/07/10 00:49:34;;;;;;;4.03;2.53;;;26.60;1.00;;;;;;5099387;27;20076;-47
2022/07/10 00:52:03;;;;;;;2.65;1.42;;;26.60;1.00;;;;;;5110310;27;20051;-46
2022/07/10 00:54:33;;;;;;;2.50;1.50;;;26.60;1.00;;;;;;5111228;27;20115;-48
2022/07/10 00:56:59;;;;;;;3.00;1.60;;;26.50;1.00;;;;;;5110761;27;20110;-47
2022/07/10 00:59:26;;;;;;;2.45;1.80;;;26.50;1.00;;;;;;5113960;28;20392;-47
2022/07/10 01:01:51;;;;;;;3.70;1.35;;;26.40;1.00;;;;;;5113302;28;20019;-47
2022/07/10 01:04:18;;;;;;;5.65;1.73;;;26.50;1.00;;;;;;5112762;28;20538;-48
2022/07/10 01:06:43;;;;;;;2.20;1.85;;;26.40;1.00;;;;;;5111951;28;20024;-46
2022/07/10 01:09:09;;;;;;;1.52;1.42;;;26.40;1.00;;;;;;5111463;27;20031;-48
2022/07/10 01:11:36;;;;;;;3.20;1.50;;;26.40;1.00;;;;;;5112330;27;20020;-49
2022/07/10 01:14:02;;;;;;;1.70;1.60;;;26.40;1.00;;;;;;5113354;27;20047;-46
2022/07/10 01:16:29;;;;;;;2.88;1.58;;;26.50;1.00;;;;;;5110548;27;20086;-52
2022/07/10 01:18:55;;;;;;;3.67;1.73;;;26.40;1.00;;;;;;5113906;28;20036;-52
2022/07/10 01:21:33;;;;;;;3.05;1.60;;;26.40;1.00;;;;;;5111126;28;20020;-51
2022/07/10 01:23:59;;;;;;;2.40;1.50;;;26.40;1.00;;;;;;5111511;27;20480;-52
2022/07/10 01:26:25;;;;;;;1.80;1.42;;;26.40;1.00;;;;;;5112951;28;20024;-50
2022/07/10 01:28:53;;;;;;;2.90;1.88;;;26.40;1.00;;;;;;5090955;28;20027;-47
2022/07/10 01:31:26;;;;;;;2.55;1.50;;;26.30;1.00;;;;;;5089729;28;20035;-49
2022/07/10 01:33:52;;;;;;;3.72;1.67;;;26.10;1.00;;;;;;5107325;27;20058;-46
2022/07/10 01:36:18;;;;;;;4.35;1.73;;;26.00;1.00;;;;;;5111247;27;20532;-48
2022/07/10 01:38:43;;;;;;;4.15;1.55;;;26.00;1.00;;;;;;5112623;28;20130;-47
2022/07/10 01:41:09;;;;;;;3.33;1.60;;;25.90;1.00;;;;;;5111947;28;20036;-48
2022/07/10 01:43:36;;;;;;;1.60;1.50;;;26.00;1.00;;;;;;5112662;27;20028;-46
2022/07/10 01:46:03;;;;;;;2.13;1.63;;;25.90;1.00;;;;;;5112464;27;20019;-49
2022/07/10 01:48:29;;;;;;;5.40;1.80;;;26.00;1.00;;;;;;5113070;28;20114;-47
2022/07/10 01:50:55;;;;;;;1.50;1.40;;;25.90;1.00;;;;;;5112006;27;20039;-50
2022/07/10 01:53:21;;;;;;;2.15;1.35;;;26.00;1.00;;;;;;5110791;27;20023;-47
2022/07/10 01:55:46;;;;;;;2.28;1.67;;;26.00;1.00;;;;;;5105696;28;20096;-48
2022/07/10 01:58:12;;;;;;;2.53;1.70;;;25.90;1.00;;;;;;5094559;28;20084;-49
2022/07/10 02:00:37;;;;;;;2.70;1.40;;;25.90;1.00;;;;;;5110998;28;20030;-48
2022/07/10 02:05:47;;;;;;;2.60;1.70;;;25.90;1.00;;;;;;5112295;28;20042;-47
2022/07/10 02:08:13;;;;;;;2.53;1.45;;;26.00;1.00;;;;;;5108014;28;20075;-47
2022/07/10 02:10:38;;;;;;;1.60;1.50;;;26.00;1.00;;;;;;5112032;28;20027;-48
2022/07/10 02:13:04;;;;;;;1.77;1.35;;;26.00;1.00;;;;;;5110806;27;20023;-48
2022/07/10 02:15:30;;;;;;;4.13;1.48;;;26.00;1.00;;;;;;5111949;27;20034;-47
2022/07/10 02:17:55;;;;;;;1.77;1.30;;;26.00;1.00;;;;;;5111156;28;20101;-49
2022/07/10 02:20:21;;;;;;;2.20;2.00;;;26.10;1.00;;;;;;5112151;28;20133;-46
2022/07/10 02:22:46;;;;;;;1.88;1.45;;;26.10;1.00;;;;;;5104335;28;20539;-50
2022/07/10 02:25:12;;;;;;;2.53;1.33;;;26.10;1.00;;;;;;5107436;28;20036;-53
2022/07/10 02:27:38;;;;;;;3.63;1.50;;;26.10;1.00;;;;;;5108435;27;20098;-47
2022/07/10 02:30:05;;;;;;;2.80;1.35;;;26.10;1.00;;;;;;5109851;28;20473;-47
2022/07/10 02:32:30;;;;;;;1.80;1.70;;;26.10;1.00;;;;;;5108668;28;20480;-47
2022/07/10 02:34:56;;;;;;;1.48;1.38;;;26.10;1.00;;;;;;5111312;28;20032;-47
2022/07/10 02:37:21;;;;;;;2.88;1.40;;;26.10;1.00;;;;;;5107715;28;20036;-49
2022/07/10 02:39:47;;;;;;;4.38;1.50;;;26.10;1.00;;;;;;5111478;28;20345;-48
2022/07/10 02:42:13;;;;;;;1.48;1.38;;;26.10;1.00;;;;;;5090400;28;20496;-47
2022/07/10 02:44:41;;;;;;;2.15;1.45;;;26.10;1.00;;;;;;5090141;28;20046;-47
2022/07/10 02:47:07;;;;;;;1.80;1.20;;;26.00;1.00;;;;;;5108097;28;20039;-46
2022/07/10 02:49:33;;;;;;;4.90;1.73;;;26.00;1.00;;;;;;5097327;28;20023;-50
2022/07/10 02:51:58;;;;;;;4.57;1.60;;;25.90;1.00;;;;;;5109835;28;21016;-53
2022/07/10 02:54:24;;;;;;;1.63;1.30;;;25.90;1.00;;;;;;5110897;28;20512;-50
2022/07/10 02:56:50;;;;;;;2.25;1.35;;;26.00;1.00;;;;;;5109445;28;20030;-53
2022/07/10 02:59:16;;;;;;;1.48;1.38;;;25.90;1.00;;;;;;5110411;28;20039;-52
2022/07/10 03:01:42;;;;;;;4.00;1.70;;;25.90;1.00;;;;;;5109750;28;20015;-47
2022/07/10 03:04:08;;;;;;;1.35;1.25;;;25.90;1.00;;;;;;5108554;28;20038;-51
2022/07/10 03:06:33;;;;;;;1.58;1.50;;;25.80;1.00;;;;;;5091625;28;20118;-50
2022/07/10 03:08:59;;;;;;;3.50;1.70;;;25.80;1.00;;;;;;5110081;28;20028;-50
2022/07/10 03:11:24;;;;;;;2.17;1.55;;;25.80;1.00;;;;;;5112028;28;20037;-52
2022/07/10 03:13:50;;;;;;;1.95;1.50;;;25.80;1.00;;;;;;5109368;28;20028;-52
2022/07/10 03:16:15;;;;;;;1.98;1.35;;;25.80;1.00;;;;;;5109366;28;20088;-50
2022/07/10 03:18:41;;;;;;;2.33;1.40;;;25.90;1.00;;;;;;5092682;28;20485;-51
2022/07/10 03:21:07;;;;;;;2.20;1.40;;;25.80;1.00;;;;;;5107891;28;20055;-47
2022/07/10 03:23:32;;;;;;;1.50;1.30;;;25.80;1.00;;;;;;5083045;28;20092;-48
2022/07/10 03:25:58;;;;;;;3.60;1.42;;;25.80;1.00;;;;;;5107964;28;20145;-49
2022/07/10 03:28:23;;;;;;;2.58;1.40;;;25.80;1.00;;;;;;5111023;28;20553;-51
2022/07/10 03:30:49;;;;;;;3.50;1.17;;;25.80;1.00;;;;;;5109091;28;20042;-46
2022/07/10 03:33:14;;;;;;;2.30;1.60;;;25.90;1.00;;;;;;5090920;28;20051;-53
2022/07/10 03:35:40;;;;;;;1.48;1.38;;;25.90;1.00;;;;;;5109686;28;20019;-48
2022/07/10 03:38:06;;;;;;;2.13;1.55;;;26.00;1.00;;;;;;5092181;28;20453;-46
2022/07/10 03:40:31;;;;;;;1.73;1.63;;;26.00;1.00;;;;;;5111463;28;20126;-46
2022/07/10 03:42:57;;;;;;;2.67;1.67;;;25.90;1.00;;;;;;5110295;28;20111;-47
2022/07/10 03:45:22;;;;;;;3.05;1.70;;;25.90;1.00;;;;;;5100989;28;20377;-48
2022/07/10 03:47:48;;;;;;;3.65;1.70;;;25.90;1.00;;;;;;5105979;28;20082;-47
2022/07/10 03:50:13;;;;;;;3.53;1.98;;;25.90;1.00;;;;;;5075389;28;20024;-48
2022/07/10 03:52:39;;;;;;;1.98;1.50;;;25.80;1.00;;;;;;5096464;28;20027;-48
2022/07/10 03:55:05;;;;;;;2.38;1.42;;;25.80;1.00;;;;;;5127165;28;20027;-48
2022/07/10 04:00:15;;;;;;;1.35;1.25;;;25.80;1.00;;;;;;5110309;28;20127;-47
2022/07/10 04:02:40;;;;;;;2.78;1.38;;;25.80;1.00;;;;;;5110786;28;20103;-48
2022/07/10 04:05:09;;;;;;;1.70;1.35;;;25.70;1.00;;;;;;5107189;28;20038;-48
2022/07/10 04:07:36;;;;;;;3.10;1.33;;;25.70;1.00;;;;;;5092342;28;20051;-47
2022/07/10 04:10:02;;;;;;;2.00;1.45;;;25.70;1.00;;;;;;5108903;28;20024;-47
2022/07/10 04:12:28;;;;;;;2.63;1.58;;;25.70;1.00;;;;;;5110369;28;20039;-47
2022/07/10 04:14:54;;;;;;;3.28;1.55;;;25.70;1.00;;;;;;5110920;28;20020;-47
2022/07/10 04:17:19;;;;;;;2.30;1.40;;;25.70;1.00;;;;;;5111414;28;20031;-54
2022/07/10 04:19:46;;;;;;;4.55;1.88;;;25.70;1.00;;;;;;5113263;28;20092;-53
2022/07/10 04:22:12;;;;;;;2.95;1.45;;;25.60;1.00;;;;;;5112606;28;20114;-49
2022/07/10 04:24:38;;;;;;;2.58;1.40;;;25.60;1.00;;;;;;5112458;28;20089;-47
2022/07/10 04:27:04;;;;;;;3.15;1.50;;;25.60;1.00;;;;;;5114843;28;20393;-53
2022/07/10 04:29:29;;;;;;;2.92;1.75;;;25.60;1.00;;;;;;5110569;28;20024;-49
2022/07/10 04:31:55;;;;;;;3.58;1.42;;;25.60;1.00;;;;;;5111929;27;20028;-49
2022/07/10 04:34:21;;;;;;;3.20;1.60;;;25.60;1.00;;;;;;5112574;27;20388;-48
2022/07/10 04:36:46;;;;;;;1.83;1.60;;;25.60;1.00;;;;;;5110560;28;20141;-48
2022/07/10 04:39:12;;;;;;;1.67;1.38;;;25.60;1.00;;;;;;5110330;28;20035;-50
2022/07/10 04:41:37;;;;;;;2.90;1.50;;;25.60;1.00;;;;;;5114432;28;20018;-50
2022/07/10 04:44:03;;;;;;;2.22;1.13;;;25.60;1.00;;;;;;5111051;27;20102;-49
2022/07/10 04:46:29;;;;;;;3.15;1.52;;;25.60;1.00;;;;;;5113768;27;20050;-47
2022/07/10 04:48:54;;;;;;;2.13;1.33;;;25.60;1.00;;;;;;5112960;28;20449;-49
2022/07/10 04:51:20;;;;;;;2.03;1.50;;;25.60;1.00;;;;;;5114023;28;20020;-49
2022/07/10 04:53:46;;;;;;;2.42;1.13;;;25.60;1.00;;;;;;5109908;28;20103;-49
2022/07/10 04:56:11;;;;;;;1.85;1.30;;;25.60;1.00;;;;;;5113854;28;20036;-50
2022/07/10 04:58:37;;;;;;;1.88;1.15;;;25.60;1.00;;;;;;5112414;28;20031;-52
2022/07/10 05:01:03;;;;;;;4.03;1.58;;;25.60;1.00;;;;;;5111516;27;20367;-52
2022/07/10 05:03:29;;;;;;;1.70;1.17;;;25.60;1.00;;;;;;5112436;27;20023;-54
2022/07/10 05:05:54;;;;;;;2.30;1.35;;;25.60;1.00;;;;;;5094811;28;20473;-53
2022/07/10 05:08:20;;;;;;;2.08;1.33;;;25.70;1.00;;;;;;5113378;28;20035;-49
2022/07/10 05:10:46;;;;;;;3.38;1.30;;;25.70;1.00;;;;;;5112551;28;20383;-49
2022/07/10 05:13:12;;;;;;;1.48;1.20;;;25.70;1.00;;;;;;5093436;28;20254;-47
2022/07/10 05:15:38;;;;;;;5.05;1.20;;;25.70;1.00;;;;;;5111976;28;20032;-46
2022/07/10 05:18:04;;;;;;;4.38;1.67;;;25.70;1.00;;;;;;5110931;28;20057;-47
2022/07/10 05:20:29;;;;;;;3.00;1.10;;;25.70;1.00;;;;;;5112678;28;20107;-47
2022/07/10 05:22:55;;;;;;;1.25;1.08;;;25.70;1.00;;;;;;5104445;28;20560;-46
2022/07/10 05:25:21;;;;;;;1.50;1.25;;;25.70;1.00;;;;;;5109985;28;20118;-49
2022/07/10 05:27:46;;;;;;;2.92;1.23;;;25.70;1.00;;;;;;5110511;28;20110;-49
2022/07/10 05:30:12;;;;;;;1.95;1.10;;;25.70;1.00;;;;;;5112835;28;20385;-47
2022/07/10 05:32:44;;;;;;;2.65;1.20;;;25.80;1.00;;;;;;5111692;27;20068;-48
2022/07/10 05:35:11;;;;;;;1.77;1.30;;;25.70;1.00;;;;;;5108311;28;20035;-48
2022/07/10 05:37:37;;;;;;;1.20;1.10;;;25.70;1.00;;;;;;5108824;28;20138;-48
2022/07/10 05:40:03;;;;;;;3.15;1.30;;;25.80;1.00;;;;;;5111668;28;20049;-47
2022/07/10 05:42:28;;;;;;;1.98;1.10;;;25.80;1.00;;;;;;5110787;27;20475;-46
2022/07/10 05:44:54;;;;;;;1.42;1.02;;;25.80;1.00;;;;;;5099619;28;20077;-52
2022/07/10 05:47:20;;;;;;;2.33;1.33;;;25.80;1.00;;;;;;5109184;28;20020;-50
2022/07/10 05:49:45;;;;;;;2.20;1.48;;;25.90;1.00;;;;;;5107343;28;20032;-50
2022/07/10 05:52:11;;;;;;;1.48;1.10;;;25.90;1.00;;;;;;5112970;28;20031;-45
2022/07/10 05:54:37;;;;;;;1.65;1.42;;;25.90;1.00;;;;;;5110607;28;20330;-45
2022/07/10 05:57:03;;;;;;;1.50;1.10;;;25.90;1.00;;;;;;5110289;28;20034;-45
2022/07/10 05:59:29;;;;;;;2.00;1.35;;;25.90;1.00;;;;;;5111087;28;20039;-48
2022/07/10 06:01:54;;;;;;;0.90;0.90;;;26.00;1.00;;;;;;5110057;28;20204;-46
2022/07/10 06:04:20;;;;;;;2.00;1.50;;;25.90;1.00;;;;;;5093577;28;20400;-46
2022/07/10 06:06:46;;;;;;;2.53;1.05;;;26.00;1.00;;;;;;5112907;28;20023;-45
2022/07/10 06:09:12;;;;;;;1.95;1.40;;;26.00;1.00;;;;;;5109524;28;20733;-46
2022/07/10 06:11:37;;;;;;;1.33;0.88;;;26.00;1.00;;;;;;5096977;28;20118;-46
2022/07/10 06:14:03;;;;;;;2.47;1.30;;;26.00;1.00;;;;;;5108815;28;20028;-47
2022/07/10 06:16:29;;;;;;;2.72;1.25;;;26.10;1.00;;;;;;5103341;28;20106;-50
2022/07/10 06:18:54;;;;;;;1.27;0.95;;;26.10;1.00;;;;;;5105119;28;20055;-47
2022/07/10 06:21:21;;;;;;;1.20;0.90;;;26.10;1.00;;;;;;5110013;28;20031;-47
2022/07/10 06:23:47;;;;;;;2.45;1.20;;;26.10;1.00;;;;;;5111920;28;20062;-50
2022/07/10 06:26:13;;;;;;;2.47;1.25;;;26.10;1.00;;;;;;5109057;28;20070;-46
2022/07/10 06:28:39;;;;;;;2.28;1.00;;;26.10;1.00;;;;;;5109871;28;20031;-46
2022/07/10 06:31:05;;;;;;;2.25;1.40;;;26.20;1.00;;;;;;5093987;28;20020;-49
2022/07/10 06:33:32;;;;;;;0.90;0.90;;;26.20;1.00;;;;;;5111623;28;20027;-46
2022/07/10 06:35:58;;;;;;;1.17;1.08;;;26.20;1.00;;;;;;5109862;28;20468;-46
2022/07/10 06:38:23;;;;;;;1.75;0.88;;;26.20;1.00;;;;;;5091574;27;20032;-52
2022/07/10 06:40:51;;;;;;;1.20;1.10;;;26.20;1.00;;;;;;5111395;28;20022;-48
2022/07/10 06:43:16;;;;;;;1.15;1.00;;;26.30;1.00;;;;;;5108955;28;20051;-49
2022/07/10 06:45:42;;;;;;;1.20;0.90;;;26.30;1.00;;;;;;5112013;28;20393;-46
2022/07/10 06:48:08;;;;;;;1.77;0.93;;;26.30;1.00;;;;;;5092264;28;20032;-46
2022/07/10 06:50:34;;;;;;;1.45;0.77;;;26.30;1.00;;;;;;5110997;28;20388;-54
2022/07/10 06:53:01;;;;;;;1.75;0.90;;;26.30;1.00;;;;;;5109911;28;20023;-52
2022/07/10 06:55:27;;;;;;;2.22;0.90;;;26.40;1.00;;;;;;5106127;28;20035;-51
2022/07/10 06:57:54;;;;;;;1.42;1.30;;;26.40;1.00;;;;;;5111482;28;20031;-54
2022/07/10 07:00:20;;;;;;;0.82;0.82;;;26.40;1.00;;;;;;5109242;28;20140;-51
2022/07/10 07:02:45;;;;;;;1.67;0.95;;;26.40;1.00;;;;;;5111367;28;20027;-52
2022/07/10 07:05:11;;;;;;;1.77;0.90;;;26.30;1.00;;;;;;5111140;28;20028;-52
2022/07/10 07:07:37;;;;;;;1.67;1.00;;;26.30;1.00;;;;;;5109408;28;20016;-51
2022/07/10 07:10:04;;;;;;;1.30;1.08;;;26.40;1.00;;;;;;5108575;28;20455;-51
2022/07/10 07:12:30;;;;;;;3.80;1.13;;;26.40;1.00;;;;;;5110790;28;20435;-50
2022/07/10 07:14:55;;;;;;;1.40;1.13;;;26.50;1.00;;;;;;5110939;28;20034;-47
2022/07/10 07:17:22;;;;;;;1.95;1.13;;;26.50;1.00;;;;;;5110020;28;20055;-46
2022/07/10 07:25:21;;;;;;;3.03;1.27;;;26.60;1.00;;;;;;5111148;28;20058;-49
2022/07/10 07:27:47;;;;;;;1.17;1.00;;;26.60;1.00;;;;;;5111726;28;20031;-46
2022/07/10 07:30:17;;;;;;;1.25;1.15;;;26.60;1.00;;;;;;5088863;28;20031;-47
2022/07/10 07:32:44;;;;;;;3.47;1.35;;;26.70;1.00;;;;;;5108947;28;20073;-48
2022/07/10 07:35:11;;;;;;;0.90;0.90;;;26.70;1.00;;;;;;5110648;28;20034;-47
2022/07/10 07:37:40;;;;;;;5.30;1.30;;;26.70;1.00;;;;;;5109945;28;20027;-47
2022/07/10 07:40:15;;;;;;;2.45;1.30;;;26.80;1.00;;;;;;5106698;28;20040;-45
2022/07/10 07:42:42;;;;;;;1.35;1.25;;;26.80;1.00;;;;;;5092302;28;20024;-47
2022/07/10 07:45:09;;;;;;;0.95;0.95;;;26.90;1.00;;;;;;5110233;28;20111;-49
2022/07/10 07:47:50;;;;;;;1.63;1.38;;;26.90;1.00;;;;;;5108474;28;20034;-48
2022/07/10 07:50:21;;;;;;;2.70;1.48;;;27.00;1.00;;;;;;5091617;28;20119;-50
2022/07/10 07:52:48;;;;;;;4.20;1.50;;;27.00;1.00;;;;;;5114176;28;20074;-47
2022/07/10 07:55:15;;;;;;;3.53;1.58;;;27.00;1.00;;;;;;5112893;28;20051;-50
2022/07/10 07:57:41;;;;;;;1.52;1.02;;;27.00;1.00;;;;;;5115331;28;20023;-47
2022/07/10 08:00:08;;;;;;;1.80;1.20;;;27.10;1.00;;;;;;5112018;28;20478;-48
2022/07/10 08:02:34;;;;;;;2.88;1.58;;;27.10;1.00;;;;;;5111074;28;20024;-49
2022/07/10 08:05:00;;;;;;;1.98;1.10;;;27.10;1.00;;;;;;5113814;28;20030;-47
2022/07/10 08:07:39;;;;;;;1.60;1.35;;;27.30;1.00;;;;;;5115124;28;20487;-50
2022/07/10 08:10:07;;;;;;;2.05;1.40;;;27.30;1.00;;;;;;5097448;28;20495;-50
2022/07/10 08:12:33;;;;;;;1.67;1.35;;;27.30;1.00;;;;;;5100876;28;20030;-49
2022/07/10 08:14:59;;;;;;;1.63;1.50;;;27.30;1.00;;;;;;5114022;28;20032;-52
2022/07/10 08:17:25;;;;;;;3.30;1.50;;;27.30;1.00;;;;;;5113980;28;20505;-48
2022/07/10 08:19:51;;;;;;;1.80;1.20;;;27.40;1.00;;;;;;5114070;28;20023;-48
2022/07/10 08:22:16;;;;;;;2.10;1.40;;;27.50;1.00;;;;;;5111007;28;20128;-51
2022/07/10 08:24:42;;;;;;;4.55;1.65;;;27.50;1.00;;;;;;5108826;28;20205;-50
2022/07/10 08:27:08;;;;;;;3.13;2.13;;;27.50;1.00;;;;;;5112923;28;20027;-50
2022/07/10 08:29:34;;;;;;;2.47;1.70;;;27.50;1.00;;;;;;5114002;27;20031;-47
2022/07/10 08:31:59;;;;;;;1.98;1.40;;;27.50;1.00;;;;;;5112635;28;20031;-48
2022/07/10 08:34:27;;;;;;;1.60;1.48;;;27.60;1.00;;;;;;5113956;28;20385;-49
2022/07/10 08:36:53;;;;;;;3.17;2.17;;;27.70;1.00;;;;;;5114087;28;20470;-52
2022/07/10 08:39:21;;;;;;;3.03;1.92;;;27.80;1.00;;;;;;5113334;28;20069;-48
2022/07/10 08:41:50;;;;;;;9.27;1.90;;;27.80;1.00;;;;;;5114688;28;20028;-47
2022/07/10 08:44:17;;;;;;;4.65;2.50;;;27.90;1.00;;;;;;5113155;28;20032;-52
2022/07/10 08:46:43;;;;;;;3.28;2.47;;;27.90;1.00;;;;;;5094228;28;20051;-50
2022/07/10 08:49:11;;;;;;;5.20;2.03;;;28.00;1.00;;;;;;5112952;28;20051;-48
2022/07/10 08:51:41;;;;;;;2.30;2.03;;;28.10;1.00;;;;;;5112704;28;20051;-50
2022/07/10 08:54:08;;;;;;;4.05;2.08;;;28.00;1.00;;;;;;5112751;27;20055;-48
2022/07/10 08:56:34;;;;;;;3.25;1.77;;;28.10;1.00;;;;;;5112808;27;20089;-48
2022/07/10 08:59:03;;;;;;;3.05;2.17;;;28.10;1.00;;;;;;5108945;27;20071;-49
2022/07/10 09:01:30;;;;;;;5.13;1.90;;;28.20;1.00;;;;;;5114085;28;20030;-48
2022/07/10 09:03:55;;;;;;;3.38;2.00;;;28.20;1.00;;;;;;5113165;28;20020;-50
2022/07/10 09:06:21;;;;;;;3.00;1.73;;;28.30;1.00;;;;;;5078361;28;20030;-49
2022/07/10 09:09:02;;;;;;;3.03;1.63;;;28.30;1.00;;;;;;5111642;27;20163;-49
2022/07/10 09:11:30;;;;;;;3.35;1.60;;;28.30;1.00;;;;;;5108986;27;20039;-51
2022/07/10 09:14:07;;;;;;;2.55;1.50;;;28.20;1.00;;;;;;5108460;27;20023;-46
2022/07/10 09:16:34;;;;;;;3.38;1.73;;;28.30;1.00;;;;;;5109758;27;20024;-53
2022/07/10 09:19:26;;;;;;;5.97;2.72;;;28.20;1.00;;;;;;5100634;27;20046;-50
2022/07/10 09:22:07;;;;;;;4.55;1.55;;;28.30;1.00;;;;;;5112811;27;20031;-48
2022/07/10 09:24:36;;;;;;;1.77;1.67;;;28.30;1.00;;;;;;5111461;28;20493;-48
2022/07/10 09:27:05;;;;;;;2.00;1.67;;;28.30;1.00;;;;;;5111124;28;20027;-50
2022/07/10 09:29:32;;;;;;;1.90;1.70;;;28.30;1.00;;;;;;5108435;28;20475;-49
2022/07/10 09:32:00;;;;;;;3.75;1.67;;;28.30;1.00;;;;;;5113712;28;20024;-49
2022/07/10 09:34:46;;;;;;;1.73;1.60;;;28.30;1.00;;;;;;5109848;28;20366;-48
2022/07/10 09:37:28;;;;;;;1.80;1.60;;;28.40;1.00;;;;;;5105132;28;20023;-50
2022/07/10 09:40:04;;;;;;;2.30;1.20;;;28.40;1.00;;;;;;5112129;28;20080;-46
2022/07/10 09:42:30;;;;;;;3.22;1.30;;;28.40;1.00;;;;;;5103756;28;20123;-51
2022/07/10 09:45:15;;;;;;;5.35;1.60;;;28.50;1.00;;;;;;5104866;28;20032;-49
2022/07/10 09:48:00;;;;;;;4.07;1.85;;;28.60;1.00;;;;;;5099276;28;20023;-47
2022/07/10 09:50:31;;;;;;;3.50;1.60;;;28.60;1.00;;;;;;5110713;28;20095;-46
2022/07/10 09:53:09;;;;;;;1.80;1.60;;;28.70;1.00;;;;;;5109927;28;20505;-47
2022/07/10 09:55:36;;;;;;;3.05;1.80;;;28.80;1.00;;;;;;5112114;28;20477;-47
2022/07/10 09:58:04;;;;;;;2.00;1.75;;;28.90;1.00;;;;;;5112591;28;20031;-49
2022/07/10 10:00:36;;;;;;;2.50;1.85;;;29.00;1.00;;;;;;5110411;28;20034;-51
2022/07/10 10:03:07;;;;;;;3.15;1.90;;;29.30;1.00;;;;;;5108779;28;20034;-47
2022/07/10 10:05:53;;;;;;;2.42;1.63;;;29.10;1.00;;;;;;5104160;28;21290;-48
2022/07/10 10:08:24;;;;;;;2.38;2.15;;;29.30;1.00;;;;;;5113332;28;20063;-48
2022/07/10 10:10:51;;;;;;;3.28;2.10;;;29.00;1.00;;;;;;5106449;27;20038;-47
2022/07/10 10:13:19;;;;;;;3.53;2.05;;;29.10;1.00;;;;;;5112039;28;20047;-49
2022/07/10 10:15:48;;;;;;;1.85;1.70;;;29.20;1.00;;;;;;5110908;28;20501;-47
2022/07/10 10:18:19;;;;;;;4.20;1.77;;;29.50;1.00;;;;;;5109464;27;20043;-48
2022/07/10 10:20:49;;;;;;;1.85;1.58;;;29.40;1.00;;;;;;5104231;27;20058;-47
2022/07/10 10:23:20;;;;;;;1.55;1.40;;;29.50;1.00;;;;;;5108638;28;20034;-47
2022/07/10 10:25:46;;;;;;;1.98;1.45;;;29.40;1.00;;;;;;5108822;28;20039;-46
2022/07/10 10:28:13;;;;;;;2.63;2.40;;;29.50;1.00;;;;;;5107952;27;20102;-47
2022/07/10 10:30:42;;;;;;;2.10;1.92;;;29.50;1.00;;;;;;5109043;27;20023;-48
2022/07/10 10:33:30;;;;;;;2.33;1.20;;;29.70;1.00;;;;;;5108500;27;20114;-51
2022/07/10 10:35:56;;;;;;;1.98;1.83;;;29.80;1.00;;;;;;5108332;27;20046;-54
2022/07/10 10:38:22;;;;;;;1.80;1.70;;;29.80;1.00;;;;;;5109847;28;20061;-49
2022/07/10 10:40:48;;;;;;;3.13;1.98;;;29.50;1.00;;;;;;5109079;28;20099;-48
2022/07/10 10:43:24;;;;;;;3.03;2.10;;;29.80;1.00;;;;;;5108634;27;20035;-52
2022/07/10 10:45:52;;;;;;;2.08;1.63;;;30.10;1.00;;;;;;5109936;28;20523;-51
2022/07/10 10:48:21;;;;;;;2.88;2.20;;;29.90;1.00;;;;;;5092232;28;20027;-51
2022/07/10 10:50:49;;;;;;;5.68;1.58;;;29.90;1.00;;;;;;5104205;28;20411;-46
2022/07/10 10:53:20;;;;;;;2.00;1.58;;;30.20;1.00;;;;;;5110109;27;20106;-47
2022/07/10 10:56:04;;;;;;;2.00;1.80;;;30.40;1.00;;;;;;5107715;28;20026;-48
2022/07/10 10:58:44;;;;;;;3.67;1.67;;;30.60;1.00;;;;;;5104202;28;20118;-47
2022/07/10 11:01:21;;;;;;;4.22;1.90;;;30.70;1.00;;;;;;5109940;28;20020;-48
2022/07/10 11:04:08;;;;;;;1.40;1.35;;;30.70;1.00;;;;;;5107981;28;20515;-47
2022/07/10 11:06:44;;;;;;;2.75;1.60;;;30.80;1.00;;;;;;5109125;28;20012;-49
2022/07/10 11:09:34;;;;;;;1.95;1.25;;;31.10;1.00;;;;;;5108493;27;20036;-49
2022/07/10 11:12:09;;;;;;;5.55;2.28;;;31.00;1.00;;;;;;5110370;28;20396;-47
2022/07/10 11:14:42;;;;;;;2.22;1.85;;;30.90;1.00;;;;;;5111944;28;20098;-46
2022/07/10 11:17:09;;;;;;;2.08;1.98;;;31.10;1.00;;;;;;5109126;28;20027;-49
2022/07/10 11:19:35;;;;;;;2.10;1.70;;;31.40;1.00;;;;;;5106055;28;20044;-51
2022/07/10 11:22:16;;;;;;;2.35;2.20;;;31.20;1.00;;;;;;5110615;28;20024;-47
2022/07/10 11:24:48;;;;;;;2.10;1.90;;;31.40;1.00;;;;;;5111572;28;20039;-51
2022/07/10 11:27:59;;;;;;;3.08;1.92;;;31.60;1.00;;;;;;5105650;27;20103;-51
2022/07/10 11:30:25;;;;;;;2.03;1.80;;;32.10;1.00;;;;;;5112332;28;20047;-49
2022/07/10 11:32:52;;;;;;;6.57;3.42;;;35.00;1.00;;;;;;5116040;28;20030;-52
2022/07/10 11:35:18;;;;;;;2.35;2.15;;;34.90;1.00;;;;;;5115350;27;20032;-48
2022/07/10 11:37:51;;;;;;;2.10;1.83;;;34.50;1.00;;;;;;5110625;27;20110;-48
2022/07/10 11:40:19;;;;;;;4.57;2.70;;;35.40;1.00;;;;;;5113457;27;20055;-52
2022/07/10 11:42:52;;;;;;;5.57;3.35;;;34.90;1.00;;;;;;5111060;27;20098;-51
2022/07/10 11:45:28;;;;;;;;;;;34.40;1.00;;;;;;5096591;28;20110;-51
2022/07/10 11:47:54;;;;;;;2.25;2.15;;;33.70;1.00;;;;;;5113022;27;20365;-48
2022/07/10 11:50:20;;;;;;;3.22;2.40;;;34.90;1.00;;;;;;5111333;28;20042;-51
2022/07/10 11:52:46;;;;;;;2.78;2.55;;;36.40;1.00;;;;;;5114552;27;20051;-51
2022/07/10 11:55:16;;;;;;;3.92;2.72;;;38.00;1.00;;;;;;5113016;27;20062;-50
2022/07/10 11:57:44;;;;;;;2.83;2.20;;;38.50;1.00;;;;;;5114158;27;20790;-51
2022/07/10 12:00:20;;;;;;;4.80;3.13;;;38.90;1.00;;;;;;5111492;28;20658;-49
2022/07/10 12:02:46;;;;;;;4.07;3.30;;;38.70;1.00;;;;;;5113403;28;20030;-49
2022/07/10 12:05:33;;;;;;;5.00;3.03;;;39.80;1.00;;;;;;5112597;27;20024;-50
2022/07/10 12:07:59;;;;;;;3.55;3.25;;;39.30;1.00;;;;;;5110851;28;20070;-48
2022/07/10 12:10:31;;;;;;;4.00;3.22;;;39.40;1.00;;;;;;5113902;27;20047;-47
2022/07/10 12:13:13;;;;;;;3.42;3.22;;;39.50;1.00;;;;;;5109394;28;20039;-47
2022/07/10 12:15:44;;;;;;;3.05;2.80;;;39.00;1.00;;;;;;5110609;27;20077;-49
2022/07/10 12:18:17;;;;;;;2.95;2.40;;;38.90;1.00;;;;;;5108601;28;20519;-50
2022/07/10 12:20:45;;;;;;;;;;;39.00;1.00;;;;;;5111578;27;20076;-54
2022/07/10 12:23:14;;;;;;;3.13;2.90;;;38.00;1.00;;;;;;5113854;27;19966;-54
2022/07/10 12:25:41;;;;;;;3.00;2.80;;;38.10;1.00;;;;;;5110597;27;20047;-52
2022/07/10 12:28:06;;;;;;;5.07;2.88;;;39.30;1.00;;;;;;5112813;28;20051;-52
2022/07/10 12:30:43;;;;;;;2.80;2.50;;;40.40;1.00;;;;;;5110410;28;20108;-53
2022/07/10 12:33:16;;;;;;;3.33;2.97;;;39.10;1.00;;;;;;5114721;27;20077;-50
2022/07/10 12:35:49;;;;;;;4.45;2.60;;;37.50;1.00;;;;;;5108807;27;20039;-51
2022/07/10 12:38:21;;;;;;;;;;;37.10;1.00;;;;;;5094549;28;20039;-50
2022/07/10 12:40:47;;;;;;;2.47;2.28;;;36.10;1.00;;;;;;5112431;27;19907;-50
2022/07/10 12:43:12;;;;;;;3.88;2.42;;;35.60;1.00;;;;;;5106900;27;20035;-51
2022/07/10 12:45:38;;;;;;;3.45;2.58;;;35.40;1.00;;;;;;5110347;27;20015;-48
2022/07/10 12:48:08;;;;;;;2.65;2.10;;;34.80;1.00;;;;;;5112872;27;20028;-48
2022/07/10 12:50:33;;;;;;;2.88;2.50;;;34.60;1.00;;;;;;5112589;27;20019;-48
2022/07/10 12:53:11;;;;;;;2.70;2.25;;;34.50;1.00;;;;;;5095702;28;20372;-52
2022/07/10 12:55:38;;;;;;;3.15;2.28;;;34.40;1.00;;;;;;5111217;28;20011;-49
2022/07/10 12:58:09;;;;;;;3.30;2.03;;;34.40;1.00;;;;;;5095472;28;20031;-49
2022/07/10 13:00:36;;;;;;;3.33;2.17;;;34.40;1.00;;;;;;5093708;28;20024;-48
2022/07/10 13:03:01;;;;;;;2.00;1.90;;;34.20;1.00;;;;;;5113827;28;20027;-47
2022/07/10 13:05:32;;;;;;;2.38;2.17;;;33.90;1.00;;;;;;5112092;28;20038;-49
2022/07/10 13:08:26;;;;;;;2.90;2.30;;;34.10;1.00;;;;;;5111650;27;20122;-48
2022/07/10 13:10:56;;;;;;;2.30;2.10;;;33.70;1.00;;;;;;5102923;28;20077;-49
2022/07/10 13:13:22;;;;;;;4.68;2.20;;;33.70;1.00;;;;;;5113209;27;20028;-53